sensor_id;sensor_type;location;lat;lon;timestamp;P1;durP1;ratioP1;P2;durP2;ratioP2
11396;SDS011;5754;43.726;7.416;2022-11-18T00:01:42;3.80;;;1.60;;
11396;SDS011;5754;43.726;7.416;2022-11-18T00:04:17;4.53;;;1.50;;
11396;SDS011;5754;43.726;7.416;2022-11-18T00:06:51;6.30;;;2.03;;
11396;SDS011;5754;43.726;7.416;2022-11-18T00:09:26;5.73;;;2.10;;
11396;SDS011;5754;43.726;7.416;2022-11-18T00:12:00;7.03;;;2.33;;
11396;SDS011;5754;43.726;7.416;2022-11-18T00:14:54;7.97;;;1.90;;
11396;SDS011;5754;43.726;7.416;2022-11-18T00:17:28;5.77;;;1.60;;
11396;SDS011;5754;43.726;7.416;2022-11-18T00:20:05;4.37;;;1.40;;
11396;SDS011;5754;43.726;7.416;2022-11-18T00:22:40;4.17;;;1.60;;
11396;SDS011;5754;43.726;7.416;2022-11-18T00:25:14;3.97;;;1.63;;
11396;SDS011;5754;43.726;7.416;2022-11-18T00:27:48;4.00;;;1.40;;
11396;SDS011;5754;43.726;7.416;2022-11-18T00:30:23;4.73;;;1.60;;
11396;SDS011;5754;43.726;7.416;2022-11-18T00:32:57;3.73;;;1.50;;
11396;SDS011;5754;43.726;7.416;2022-11-18T00:35:32;4.73;;;1.23;;
11396;SDS011;5754;43.726;7.416;2022-11-18T00:38:06;2.53;;;1.20;;
11396;SDS011;5754;43.726;7.416;2022-11-18T00:40:41;3.17;;;1.53;;
11396;SDS011;5754;43.726;7.416;2022-11-18T00:43:15;3.20;;;1.30;;
11396;SDS011;5754;43.726;7.416;2022-11-18T00:45:50;1.97;;;1.20;;
11396;SDS011;5754;43.726;7.416;2022-11-18T00:48:24;3.13;;;1.40;;
11396;SDS011;5754;43.726;7.416;2022-11-18T00:51:06;3.10;;;1.30;;
11396;SDS011;5754;43.726;7.416;2022-11-18T00:53:42;3.33;;;1.20;;
11396;SDS011;5754;43.726;7.416;2022-11-18T00:56:17;3.80;;;1.47;;
11396;SDS011;5754;43.726;7.416;2022-11-18T00:58:51;3.73;;;1.17;;
11396;SDS011;5754;43.726;7.416;2022-11-18T01:01:26;3.17;;;1.10;;
11396;SDS011;5754;43.726;7.416;2022-11-18T01:04:00;4.17;;;1.40;;
11396;SDS011;5754;43.726;7.416;2022-11-18T01:06:35;7.80;;;1.77;;
11396;SDS011;5754;43.726;7.416;2022-11-18T01:09:09;5.33;;;1.47;;
11396;SDS011;5754;43.726;7.416;2022-11-18T01:11:44;6.47;;;1.67;;
11396;SDS011;5754;43.726;7.416;2022-11-18T01:14:37;2.87;;;1.40;;
11396;SDS011;5754;43.726;7.416;2022-11-18T01:17:12;5.37;;;1.40;;
11396;SDS011;5754;43.726;7.416;2022-11-18T01:19:46;4.63;;;1.17;;
11396;SDS011;5754;43.726;7.416;2022-11-18T01:22:21;1.63;;;1.20;;
11396;SDS011;5754;43.726;7.416;2022-11-18T01:24:55;5.23;;;1.50;;
11396;SDS011;5754;43.726;7.416;2022-11-18T01:27:29;3.50;;;1.40;;
11396;SDS011;5754;43.726;7.416;2022-11-18T01:30:04;4.27;;;1.17;;
11396;SDS011;5754;43.726;7.416;2022-11-18T01:32:39;3.13;;;1.30;;
11396;SDS011;5754;43.726;7.416;2022-11-18T01:35:16;5.10;;;1.70;;
11396;SDS011;5754;43.726;7.416;2022-11-18T01:37:50;5.43;;;1.60;;
11396;SDS011;5754;43.726;7.416;2022-11-18T01:40:25;3.63;;;1.30;;
11396;SDS011;5754;43.726;7.416;2022-11-18T01:43:00;3.27;;;1.60;;
11396;SDS011;5754;43.726;7.416;2022-11-18T01:45:36;4.90;;;1.57;;
11396;SDS011;5754;43.726;7.416;2022-11-18T01:51:08;5.47;;;1.57;;
11396;SDS011;5754;43.726;7.416;2022-11-18T01:53:49;2.37;;;1.30;;
11396;SDS011;5754;43.726;7.416;2022-11-18T01:56:41;5.43;;;1.50;;
11396;SDS011;5754;43.726;7.416;2022-11-18T01:59:20;2.97;;;1.17;;
11396;SDS011;5754;43.726;7.416;2022-11-18T02:01:56;3.90;;;1.40;;
11396;SDS011;5754;43.726;7.416;2022-11-18T02:04:32;3.43;;;1.37;;
11396;SDS011;5754;43.726;7.416;2022-11-18T02:07:08;4.27;;;1.40;;
11396;SDS011;5754;43.726;7.416;2022-11-18T02:09:43;3.00;;;1.30;;
11396;SDS011;5754;43.726;7.416;2022-11-18T02:12:17;2.83;;;1.20;;
11396;SDS011;5754;43.726;7.416;2022-11-18T02:14:53;5.33;;;1.50;;
11396;SDS011;5754;43.726;7.416;2022-11-18T02:21:45;6.20;;;2.13;;
11396;SDS011;5754;43.726;7.416;2022-11-18T02:28:35;7.23;;;1.63;;
11396;SDS011;5754;43.726;7.416;2022-11-18T02:31:26;5.90;;;2.00;;
11396;SDS011;5754;43.726;7.416;2022-11-18T02:40:24;5.27;;;1.40;;
11396;SDS011;5754;43.726;7.416;2022-11-18T02:43:00;5.30;;;1.53;;
11396;SDS011;5754;43.726;7.416;2022-11-18T02:45:39;7.73;;;2.20;;
11396;SDS011;5754;43.726;7.416;2022-11-18T02:48:15;5.97;;;1.93;;
11396;SDS011;5754;43.726;7.416;2022-11-18T02:50:51;5.57;;;2.00;;
11396;SDS011;5754;43.726;7.416;2022-11-18T02:53:26;6.30;;;1.80;;
11396;SDS011;5754;43.726;7.416;2022-11-18T02:56:02;4.57;;;1.87;;
11396;SDS011;5754;43.726;7.416;2022-11-18T02:58:38;6.50;;;1.93;;
11396;SDS011;5754;43.726;7.416;2022-11-18T03:01:14;4.20;;;1.60;;
11396;SDS011;5754;43.726;7.416;2022-11-18T03:03:49;3.53;;;1.70;;
11396;SDS011;5754;43.726;7.416;2022-11-18T03:07:29;4.33;;;1.70;;
11396;SDS011;5754;43.726;7.416;2022-11-18T03:10:05;2.73;;;1.50;;
11396;SDS011;5754;43.726;7.416;2022-11-18T03:12:42;4.60;;;1.30;;
11396;SDS011;5754;43.726;7.416;2022-11-18T03:19:28;2.70;;;0.83;;
11396;SDS011;5754;43.726;7.416;2022-11-18T03:30:32;2.30;;;0.90;;
11396;SDS011;5754;43.726;7.416;2022-11-18T03:33:11;1.43;;;0.70;;
11396;SDS011;5754;43.726;7.416;2022-11-18T03:35:48;0.83;;;0.60;;
11396;SDS011;5754;43.726;7.416;2022-11-18T03:38:24;1.10;;;0.80;;
11396;SDS011;5754;43.726;7.416;2022-11-18T03:41:00;2.03;;;0.67;;
11396;SDS011;5754;43.726;7.416;2022-11-18T03:43:39;1.10;;;0.80;;
11396;SDS011;5754;43.726;7.416;2022-11-18T03:46:21;1.70;;;0.90;;
11396;SDS011;5754;43.726;7.416;2022-11-18T03:48:57;1.47;;;0.90;;
11396;SDS011;5754;43.726;7.416;2022-11-18T03:51:35;2.10;;;0.93;;
11396;SDS011;5754;43.726;7.416;2022-11-18T03:54:21;1.57;;;0.70;;
11396;SDS011;5754;43.726;7.416;2022-11-18T03:56:57;2.87;;;0.90;;
11396;SDS011;5754;43.726;7.416;2022-11-18T03:59:37;2.10;;;0.90;;
11396;SDS011;5754;43.726;7.416;2022-11-18T04:02:17;1.77;;;1.03;;
11396;SDS011;5754;43.726;7.416;2022-11-18T04:04:52;3.93;;;0.90;;
11396;SDS011;5754;43.726;7.416;2022-11-18T04:10:58;1.53;;;1.00;;
11396;SDS011;5754;43.726;7.416;2022-11-18T04:13:35;2.90;;;0.97;;
11396;SDS011;5754;43.726;7.416;2022-11-18T04:16:10;4.20;;;1.37;;
11396;SDS011;5754;43.726;7.416;2022-11-18T04:18:44;2.53;;;1.17;;
11396;SDS011;5754;43.726;7.416;2022-11-18T04:21:18;3.10;;;1.40;;
11396;SDS011;5754;43.726;7.416;2022-11-18T04:23:53;4.30;;;1.40;;
11396;SDS011;5754;43.726;7.416;2022-11-18T04:26:27;5.93;;;1.30;;
11396;SDS011;5754;43.726;7.416;2022-11-18T04:29:04;5.27;;;1.63;;
11396;SDS011;5754;43.726;7.416;2022-11-18T04:31:38;3.43;;;1.30;;
11396;SDS011;5754;43.726;7.416;2022-11-18T04:34:12;4.37;;;1.20;;
11396;SDS011;5754;43.726;7.416;2022-11-18T04:36:47;2.77;;;1.20;;
11396;SDS011;5754;43.726;7.416;2022-11-18T04:39:21;2.43;;;1.30;;
11396;SDS011;5754;43.726;7.416;2022-11-18T04:41:56;2.70;;;1.30;;
11396;SDS011;5754;43.726;7.416;2022-11-18T04:44:31;4.77;;;1.37;;
11396;SDS011;5754;43.726;7.416;2022-11-18T04:47:06;3.63;;;1.30;;
11396;SDS011;5754;43.726;7.416;2022-11-18T04:49:41;6.20;;;1.57;;
11396;SDS011;5754;43.726;7.416;2022-11-18T04:52:15;3.50;;;1.63;;
11396;SDS011;5754;43.726;7.416;2022-11-18T04:54:49;3.17;;;1.70;;
11396;SDS011;5754;43.726;7.416;2022-11-18T04:57:24;4.07;;;1.87;;
11396;SDS011;5754;43.726;7.416;2022-11-18T04:59:58;4.70;;;1.70;;
11396;SDS011;5754;43.726;7.416;2022-11-18T05:02:33;5.93;;;1.70;;
11396;SDS011;5754;43.726;7.416;2022-11-18T05:05:07;8.63;;;1.73;;
11396;SDS011;5754;43.726;7.416;2022-11-18T05:07:42;5.37;;;1.63;;
11396;SDS011;5754;43.726;7.416;2022-11-18T05:10:16;3.57;;;1.60;;
11396;SDS011;5754;43.726;7.416;2022-11-18T05:12:50;5.03;;;1.47;;
11396;SDS011;5754;43.726;7.416;2022-11-18T05:15:25;3.07;;;1.47;;
11396;SDS011;5754;43.726;7.416;2022-11-18T05:17:59;4.70;;;1.70;;
11396;SDS011;5754;43.726;7.416;2022-11-18T05:20:34;4.40;;;1.50;;
11396;SDS011;5754;43.726;7.416;2022-11-18T05:23:14;4.20;;;1.30;;
11396;SDS011;5754;43.726;7.416;2022-11-18T05:25:49;4.33;;;1.60;;
11396;SDS011;5754;43.726;7.416;2022-11-18T05:28:23;3.63;;;1.47;;
11396;SDS011;5754;43.726;7.416;2022-11-18T05:30:58;1.87;;;1.03;;
11396;SDS011;5754;43.726;7.416;2022-11-18T05:33:32;2.13;;;0.97;;
11396;SDS011;5754;43.726;7.416;2022-11-18T05:36:08;1.43;;;0.90;;
11396;SDS011;5754;43.726;7.416;2022-11-18T05:38:43;1.07;;;0.73;;
11396;SDS011;5754;43.726;7.416;2022-11-18T05:41:18;3.03;;;0.90;;
11396;SDS011;5754;43.726;7.416;2022-11-18T05:44:11;3.20;;;0.90;;
11396;SDS011;5754;43.726;7.416;2022-11-18T05:46:45;3.77;;;0.60;;
11396;SDS011;5754;43.726;7.416;2022-11-18T05:49:20;2.13;;;0.70;;
11396;SDS011;5754;43.726;7.416;2022-11-18T05:51:56;1.30;;;0.90;;
11396;SDS011;5754;43.726;7.416;2022-11-18T05:54:30;1.83;;;0.80;;
11396;SDS011;5754;43.726;7.416;2022-11-18T05:57:04;0.93;;;0.70;;
11396;SDS011;5754;43.726;7.416;2022-11-18T05:59:39;1.27;;;0.80;;
11396;SDS011;5754;43.726;7.416;2022-11-18T06:02:17;4.30;;;0.83;;
11396;SDS011;5754;43.726;7.416;2022-11-18T06:04:57;2.50;;;0.70;;
11396;SDS011;5754;43.726;7.416;2022-11-18T06:07:42;2.10;;;0.60;;
11396;SDS011;5754;43.726;7.416;2022-11-18T06:10:21;1.33;;;0.70;;
11396;SDS011;5754;43.726;7.416;2022-11-18T06:12:59;2.73;;;0.70;;
11396;SDS011;5754;43.726;7.416;2022-11-18T06:15:35;1.47;;;0.73;;
11396;SDS011;5754;43.726;7.416;2022-11-18T06:18:26;1.47;;;0.67;;
11396;SDS011;5754;43.726;7.416;2022-11-18T06:21:02;0.77;;;0.60;;
11396;SDS011;5754;43.726;7.416;2022-11-18T06:23:39;2.03;;;0.73;;
11396;SDS011;5754;43.726;7.416;2022-11-18T06:26:14;2.30;;;0.70;;
11396;SDS011;5754;43.726;7.416;2022-11-18T06:28:49;13.23;;;9.40;;
11396;SDS011;5754;43.726;7.416;2022-11-18T06:31:24;6.20;;;5.40;;
11396;SDS011;5754;43.726;7.416;2022-11-18T06:33:58;3.20;;;1.87;;
11396;SDS011;5754;43.726;7.416;2022-11-18T06:36:32;1.53;;;1.10;;
11396;SDS011;5754;43.726;7.416;2022-11-18T06:39:08;2.73;;;1.27;;
11396;SDS011;5754;43.726;7.416;2022-11-18T06:41:42;1.70;;;1.20;;
11396;SDS011;5754;43.726;7.416;2022-11-18T06:44:19;1.17;;;0.80;;
11396;SDS011;5754;43.726;7.416;2022-11-18T06:46:53;2.83;;;0.90;;
11396;SDS011;5754;43.726;7.416;2022-11-18T06:49:27;5.17;;;1.20;;
11396;SDS011;5754;43.726;7.416;2022-11-18T06:52:02;4.30;;;1.00;;
11396;SDS011;5754;43.726;7.416;2022-11-18T06:54:36;3.03;;;1.10;;
11396;SDS011;5754;43.726;7.416;2022-11-18T06:57:10;3.43;;;1.10;;
11396;SDS011;5754;43.726;7.416;2022-11-18T06:59:45;6.20;;;1.10;;
11396;SDS011;5754;43.726;7.416;2022-11-18T07:02:20;3.03;;;0.77;;
11396;SDS011;5754;43.726;7.416;2022-11-18T07:04:54;3.20;;;0.90;;
11396;SDS011;5754;43.726;7.416;2022-11-18T07:07:29;0.80;;;0.80;;
11396;SDS011;5754;43.726;7.416;2022-11-18T07:10:03;1.33;;;0.80;;
11396;SDS011;5754;43.726;7.416;2022-11-18T07:12:38;1.23;;;0.60;;
11396;SDS011;5754;43.726;7.416;2022-11-18T07:15:13;3.67;;;0.77;;
11396;SDS011;5754;43.726;7.416;2022-11-18T07:17:47;2.57;;;0.87;;
11396;SDS011;5754;43.726;7.416;2022-11-18T07:20:22;1.50;;;0.57;;
11396;SDS011;5754;43.726;7.416;2022-11-18T07:22:56;1.20;;;0.73;;
11396;SDS011;5754;43.726;7.416;2022-11-18T07:25:42;1.37;;;0.63;;
11396;SDS011;5754;43.726;7.416;2022-11-18T07:31:05;3.73;;;1.00;;
11396;SDS011;5754;43.726;7.416;2022-11-18T07:33:41;2.37;;;1.13;;
11396;SDS011;5754;43.726;7.416;2022-11-18T07:36:20;3.33;;;1.27;;
11396;SDS011;5754;43.726;7.416;2022-11-18T07:38:57;1.83;;;1.20;;
11396;SDS011;5754;43.726;7.416;2022-11-18T07:41:32;5.87;;;2.07;;
11396;SDS011;5754;43.726;7.416;2022-11-18T07:44:10;4.50;;;1.40;;
11396;SDS011;5754;43.726;7.416;2022-11-18T07:46:45;3.57;;;1.30;;
11396;SDS011;5754;43.726;7.416;2022-11-18T07:49:19;2.43;;;1.20;;
11396;SDS011;5754;43.726;7.416;2022-11-18T07:51:54;3.57;;;1.23;;
11396;SDS011;5754;43.726;7.416;2022-11-18T07:54:28;2.15;;;1.02;;
11396;SDS011;5754;43.726;7.416;2022-11-18T07:57:03;1.92;;;0.98;;
11396;SDS011;5754;43.726;7.416;2022-11-18T07:59:37;5.32;;;1.40;;
11396;SDS011;5754;43.726;7.416;2022-11-18T08:02:12;1.65;;;1.15;;
11396;SDS011;5754;43.726;7.416;2022-11-18T08:04:46;12.37;;;1.87;;
11396;SDS011;5754;43.726;7.416;2022-11-18T08:07:21;3.53;;;1.27;;
11396;SDS011;5754;43.726;7.416;2022-11-18T08:09:56;2.67;;;1.48;;
11396;SDS011;5754;43.726;7.416;2022-11-18T08:12:30;4.90;;;1.70;;
11396;SDS011;5754;43.726;7.416;2022-11-18T08:15:05;4.03;;;1.30;;
11396;SDS011;5754;43.726;7.416;2022-11-18T08:17:40;4.37;;;1.35;;
11396;SDS011;5754;43.726;7.416;2022-11-18T08:20:14;5.65;;;3.25;;
11396;SDS011;5754;43.726;7.416;2022-11-18T08:22:49;6.32;;;1.75;;
11396;SDS011;5754;43.726;7.416;2022-11-18T08:25:23;7.78;;;2.20;;
11396;SDS011;5754;43.726;7.416;2022-11-18T08:27:57;2.97;;;2.15;;
11396;SDS011;5754;43.726;7.416;2022-11-18T08:30:33;5.07;;;2.20;;
11396;SDS011;5754;43.726;7.416;2022-11-18T08:33:07;5.35;;;2.00;;
11396;SDS011;5754;43.726;7.416;2022-11-18T08:35:42;3.03;;;1.80;;
11396;SDS011;5754;43.726;7.416;2022-11-18T08:38:16;3.15;;;2.17;;
11396;SDS011;5754;43.726;7.416;2022-11-18T08:40:52;5.57;;;2.45;;
11396;SDS011;5754;43.726;7.416;2022-11-18T08:43:26;4.68;;;2.30;;
11396;SDS011;5754;43.726;7.416;2022-11-18T08:46:00;3.85;;;2.28;;
11396;SDS011;5754;43.726;7.416;2022-11-18T08:48:36;9.20;;;2.47;;
11396;SDS011;5754;43.726;7.416;2022-11-18T08:51:10;4.10;;;2.15;;
11396;SDS011;5754;43.726;7.416;2022-11-18T08:53:44;4.20;;;2.00;;
11396;SDS011;5754;43.726;7.416;2022-11-18T08:56:19;5.07;;;2.78;;
11396;SDS011;5754;43.726;7.416;2022-11-18T08:58:55;4.55;;;2.60;;
11396;SDS011;5754;43.726;7.416;2022-11-18T09:01:29;6.18;;;2.70;;
11396;SDS011;5754;43.726;7.416;2022-11-18T09:04:04;6.05;;;2.33;;
11396;SDS011;5754;43.726;7.416;2022-11-18T09:06:38;7.25;;;2.83;;
11396;SDS011;5754;43.726;7.416;2022-11-18T09:09:13;6.30;;;2.42;;
11396;SDS011;5754;43.726;7.416;2022-11-18T09:11:47;4.05;;;2.80;;
11396;SDS011;5754;43.726;7.416;2022-11-18T09:14:22;5.37;;;2.65;;
11396;SDS011;5754;43.726;7.416;2022-11-18T09:17:27;4.22;;;2.40;;
11396;SDS011;5754;43.726;7.416;2022-11-18T09:20:01;5.00;;;2.37;;
11396;SDS011;5754;43.726;7.416;2022-11-18T09:22:36;3.97;;;2.53;;
11396;SDS011;5754;43.726;7.416;2022-11-18T09:25:11;5.85;;;2.75;;
11396;SDS011;5754;43.726;7.416;2022-11-18T09:27:46;4.60;;;2.58;;
11396;SDS011;5754;43.726;7.416;2022-11-18T09:30:21;6.60;;;2.87;;
11396;SDS011;5754;43.726;7.416;2022-11-18T09:32:55;7.55;;;2.85;;
11396;SDS011;5754;43.726;7.416;2022-11-18T09:35:30;7.68;;;2.62;;
11396;SDS011;5754;43.726;7.416;2022-11-18T09:38:06;5.95;;;2.55;;
11396;SDS011;5754;43.726;7.416;2022-11-18T09:43:44;6.53;;;2.95;;
11396;SDS011;5754;43.726;7.416;2022-11-18T09:47:58;8.93;;;3.00;;
11396;SDS011;5754;43.726;7.416;2022-11-18T09:50:33;6.60;;;3.30;;
11396;SDS011;5754;43.726;7.416;2022-11-18T09:53:23;8.32;;;2.85;;
11396;SDS011;5754;43.726;7.416;2022-11-18T09:55:58;5.12;;;2.80;;
11396;SDS011;5754;43.726;7.416;2022-11-18T09:58:33;4.15;;;2.80;;
11396;SDS011;5754;43.726;7.416;2022-11-18T10:01:11;6.10;;;2.83;;
11396;SDS011;5754;43.726;7.416;2022-11-18T10:03:47;7.72;;;2.92;;
11396;SDS011;5754;43.726;7.416;2022-11-18T10:06:27;7.82;;;3.28;;
11396;SDS011;5754;43.726;7.416;2022-11-18T10:09:09;4.22;;;2.97;;
11396;SDS011;5754;43.726;7.416;2022-11-18T10:11:57;8.45;;;3.60;;
11396;SDS011;5754;43.726;7.416;2022-11-18T10:22:18;4.35;;;3.17;;
11396;SDS011;5754;43.726;7.416;2022-11-18T10:24:57;9.43;;;3.20;;
11396;SDS011;5754;43.726;7.416;2022-11-18T10:27:37;5.95;;;3.65;;
11396;SDS011;5754;43.726;7.416;2022-11-18T10:30:22;9.73;;;3.42;;
11396;SDS011;5754;43.726;7.416;2022-11-18T10:32:58;20.98;;;4.30;;
11396;SDS011;5754;43.726;7.416;2022-11-18T10:35:34;10.75;;;4.07;;
11396;SDS011;5754;43.726;7.416;2022-11-18T10:38:19;15.77;;;4.15;;
11396;SDS011;5754;43.726;7.416;2022-11-18T10:41:10;7.93;;;3.17;;
11396;SDS011;5754;43.726;7.416;2022-11-18T10:43:55;5.43;;;3.37;;
11396;SDS011;5754;43.726;7.416;2022-11-18T10:46:31;7.10;;;3.22;;
11396;SDS011;5754;43.726;7.416;2022-11-18T10:49:13;5.93;;;3.05;;
11396;SDS011;5754;43.726;7.416;2022-11-18T10:52:09;5.78;;;2.95;;
11396;SDS011;5754;43.726;7.416;2022-11-18T10:54:44;7.35;;;3.20;;
11396;SDS011;5754;43.726;7.416;2022-11-18T10:57:20;4.30;;;2.58;;
11396;SDS011;5754;43.726;7.416;2022-11-18T10:59:55;6.43;;;2.95;;
11396;SDS011;5754;43.726;7.416;2022-11-18T11:02:33;4.70;;;2.62;;
11396;SDS011;5754;43.726;7.416;2022-11-18T11:05:16;6.50;;;3.28;;
11396;SDS011;5754;43.726;7.416;2022-11-18T11:08:02;5.87;;;3.00;;
11396;SDS011;5754;43.726;7.416;2022-11-18T11:10:55;5.25;;;3.28;;
11396;SDS011;5754;43.726;7.416;2022-11-18T11:13:30;8.25;;;3.15;;
11396;SDS011;5754;43.726;7.416;2022-11-18T11:16:06;7.85;;;3.58;;
11396;SDS011;5754;43.726;7.416;2022-11-18T11:18:40;4.80;;;3.23;;
11396;SDS011;5754;43.726;7.416;2022-11-18T11:21:19;7.27;;;2.97;;
11396;SDS011;5754;43.726;7.416;2022-11-18T11:23:57;9.27;;;2.60;;
11396;SDS011;5754;43.726;7.416;2022-11-18T11:37:51;4.17;;;2.90;;
11396;SDS011;5754;43.726;7.416;2022-11-18T11:40:35;5.13;;;3.13;;
11396;SDS011;5754;43.726;7.416;2022-11-18T11:43:26;3.73;;;2.63;;
11396;SDS011;5754;43.726;7.416;2022-11-18T11:50:37;4.90;;;2.90;;
11396;SDS011;5754;43.726;7.416;2022-11-18T11:56:27;4.30;;;2.40;;
11396;SDS011;5754;43.726;7.416;2022-11-18T11:59:06;5.00;;;2.87;;
11396;SDS011;5754;43.726;7.416;2022-11-18T12:07:28;5.10;;;3.10;;
11396;SDS011;5754;43.726;7.416;2022-11-18T12:10:26;4.90;;;2.73;;
11396;SDS011;5754;43.726;7.416;2022-11-18T12:13:10;4.00;;;2.30;;
11396;SDS011;5754;43.726;7.416;2022-11-18T12:22:01;6.33;;;2.90;;
11396;SDS011;5754;43.726;7.416;2022-11-18T12:24:43;4.17;;;2.90;;
11396;SDS011;5754;43.726;7.416;2022-11-18T12:34:16;6.43;;;2.73;;
11396;SDS011;5754;43.726;7.416;2022-11-18T12:36:52;6.67;;;2.60;;
11396;SDS011;5754;43.726;7.416;2022-11-18T12:42:57;5.47;;;2.70;;
11396;SDS011;5754;43.726;7.416;2022-11-18T12:45:51;6.37;;;3.00;;
11396;SDS011;5754;43.726;7.416;2022-11-18T12:48:30;5.23;;;2.90;;
11396;SDS011;5754;43.726;7.416;2022-11-18T12:54:45;4.90;;;2.67;;
11396;SDS011;5754;43.726;7.416;2022-11-18T12:57:26;11.23;;;3.13;;
11396;SDS011;5754;43.726;7.416;2022-11-18T13:00:46;6.77;;;3.40;;
11396;SDS011;5754;43.726;7.416;2022-11-18T13:03:27;9.80;;;3.60;;
11396;SDS011;5754;43.726;7.416;2022-11-18T13:06:05;8.63;;;3.17;;
11396;SDS011;5754;43.726;7.416;2022-11-18T13:08:41;7.73;;;3.47;;
11396;SDS011;5754;43.726;7.416;2022-11-18T13:11:17;6.73;;;3.03;;
11396;SDS011;5754;43.726;7.416;2022-11-18T13:14:27;7.10;;;3.10;;
11396;SDS011;5754;43.726;7.416;2022-11-18T13:17:33;8.20;;;3.40;;
11396;SDS011;5754;43.726;7.416;2022-11-18T13:20:32;6.27;;;3.07;;
11396;SDS011;5754;43.726;7.416;2022-11-18T13:23:30;6.40;;;2.70;;
11396;SDS011;5754;43.726;7.416;2022-11-18T13:26:24;8.70;;;2.80;;
11396;SDS011;5754;43.726;7.416;2022-11-18T13:34:47;7.80;;;3.27;;
11396;SDS011;5754;43.726;7.416;2022-11-18T13:37:27;8.80;;;4.00;;
11396;SDS011;5754;43.726;7.416;2022-11-18T13:40:01;9.10;;;2.90;;
11396;SDS011;5754;43.726;7.416;2022-11-18T13:42:36;6.47;;;2.87;;
11396;SDS011;5754;43.726;7.416;2022-11-18T13:45:17;4.93;;;2.93;;
11396;SDS011;5754;43.726;7.416;2022-11-18T13:51:01;5.47;;;2.87;;
11396;SDS011;5754;43.726;7.416;2022-11-18T13:53:36;11.87;;;3.40;;
11396;SDS011;5754;43.726;7.416;2022-11-18T13:56:24;10.80;;;3.37;;
11396;SDS011;5754;43.726;7.416;2022-11-18T13:59:01;7.17;;;2.97;;
11396;SDS011;5754;43.726;7.416;2022-11-18T14:01:54;4.80;;;2.53;;
11396;SDS011;5754;43.726;7.416;2022-11-18T14:04:32;5.87;;;2.50;;
11396;SDS011;5754;43.726;7.416;2022-11-18T14:07:27;5.00;;;2.63;;
11396;SDS011;5754;43.726;7.416;2022-11-18T14:10:03;5.27;;;2.77;;
11396;SDS011;5754;43.726;7.416;2022-11-18T14:12:39;7.10;;;2.73;;
11396;SDS011;5754;43.726;7.416;2022-11-18T14:15:15;8.63;;;2.83;;
11396;SDS011;5754;43.726;7.416;2022-11-18T14:17:52;6.17;;;2.80;;
11396;SDS011;5754;43.726;7.416;2022-11-18T14:20:28;4.33;;;2.40;;
11396;SDS011;5754;43.726;7.416;2022-11-18T14:23:11;7.80;;;3.27;;
11396;SDS011;5754;43.726;7.416;2022-11-18T14:25:48;6.77;;;3.00;;
11396;SDS011;5754;43.726;7.416;2022-11-18T14:28:27;9.47;;;3.17;;
11396;SDS011;5754;43.726;7.416;2022-11-18T14:31:19;5.87;;;2.60;;
11396;SDS011;5754;43.726;7.416;2022-11-18T14:37:29;7.43;;;2.90;;
11396;SDS011;5754;43.726;7.416;2022-11-18T14:40:04;4.47;;;2.67;;
11396;SDS011;5754;43.726;7.416;2022-11-18T14:42:38;4.60;;;2.70;;
11396;SDS011;5754;43.726;7.416;2022-11-18T14:45:14;6.23;;;2.80;;
11396;SDS011;5754;43.726;7.416;2022-11-18T14:47:48;8.93;;;2.90;;
11396;SDS011;5754;43.726;7.416;2022-11-18T14:50:22;4.43;;;2.70;;
11396;SDS011;5754;43.726;7.416;2022-11-18T14:52:57;3.67;;;2.43;;
11396;SDS011;5754;43.726;7.416;2022-11-18T14:55:31;3.20;;;2.33;;
11396;SDS011;5754;43.726;7.416;2022-11-18T14:58:12;7.23;;;2.40;;
11396;SDS011;5754;43.726;7.416;2022-11-18T15:00:47;3.47;;;2.33;;
11396;SDS011;5754;43.726;7.416;2022-11-18T15:03:23;7.50;;;2.73;;
11396;SDS011;5754;43.726;7.416;2022-11-18T15:05:57;4.57;;;2.40;;
11396;SDS011;5754;43.726;7.416;2022-11-18T15:08:32;2.97;;;2.37;;
11396;SDS011;5754;43.726;7.416;2022-11-18T15:11:06;6.00;;;2.23;;
11396;SDS011;5754;43.726;7.416;2022-11-18T15:13:41;3.00;;;2.27;;
11396;SDS011;5754;43.726;7.416;2022-11-18T15:16:20;6.10;;;2.80;;
11396;SDS011;5754;43.726;7.416;2022-11-18T15:18:56;4.13;;;2.70;;
11396;SDS011;5754;43.726;7.416;2022-11-18T15:21:33;4.17;;;2.23;;
11396;SDS011;5754;43.726;7.416;2022-11-18T15:24:07;2.93;;;2.57;;
11396;SDS011;5754;43.726;7.416;2022-11-18T15:26:43;3.23;;;2.50;;
11396;SDS011;5754;43.726;7.416;2022-11-18T15:29:19;5.60;;;2.70;;
11396;SDS011;5754;43.726;7.416;2022-11-18T15:31:56;3.47;;;2.43;;
11396;SDS011;5754;43.726;7.416;2022-11-18T15:34:31;6.23;;;3.23;;
11396;SDS011;5754;43.726;7.416;2022-11-18T15:37:05;5.60;;;2.83;;
11396;SDS011;5754;43.726;7.416;2022-11-18T15:39:40;11.17;;;3.23;;
11396;SDS011;5754;43.726;7.416;2022-11-18T15:42:18;6.33;;;2.60;;
11396;SDS011;5754;43.726;7.416;2022-11-18T15:44:56;5.03;;;2.50;;
11396;SDS011;5754;43.726;7.416;2022-11-18T15:47:30;5.20;;;2.83;;
11396;SDS011;5754;43.726;7.416;2022-11-18T15:50:05;7.30;;;2.50;;
11396;SDS011;5754;43.726;7.416;2022-11-18T15:52:39;4.80;;;2.20;;
11396;SDS011;5754;43.726;7.416;2022-11-18T15:55:14;8.13;;;3.07;;
11396;SDS011;5754;43.726;7.416;2022-11-18T15:57:49;6.63;;;2.80;;
11396;SDS011;5754;43.726;7.416;2022-11-18T16:00:24;4.23;;;2.40;;
11396;SDS011;5754;43.726;7.416;2022-11-18T16:02:58;5.13;;;2.90;;
11396;SDS011;5754;43.726;7.416;2022-11-18T16:05:32;6.77;;;2.87;;
11396;SDS011;5754;43.726;7.416;2022-11-18T16:08:06;6.27;;;2.70;;
11396;SDS011;5754;43.726;7.416;2022-11-18T16:10:41;6.13;;;4.60;;
11396;SDS011;5754;43.726;7.416;2022-11-18T16:13:33;6.97;;;3.70;;
11396;SDS011;5754;43.726;7.416;2022-11-18T16:16:16;8.83;;;3.37;;
11396;SDS011;5754;43.726;7.416;2022-11-18T16:18:55;8.23;;;3.50;;
11396;SDS011;5754;43.726;7.416;2022-11-18T16:21:31;7.40;;;3.20;;
11396;SDS011;5754;43.726;7.416;2022-11-18T16:24:07;7.90;;;2.90;;
11396;SDS011;5754;43.726;7.416;2022-11-18T16:26:42;7.47;;;2.80;;
11396;SDS011;5754;43.726;7.416;2022-11-18T16:29:17;6.77;;;3.30;;
11396;SDS011;5754;43.726;7.416;2022-11-18T16:31:52;5.27;;;2.90;;
11396;SDS011;5754;43.726;7.416;2022-11-18T16:34:27;6.37;;;3.23;;
11396;SDS011;5754;43.726;7.416;2022-11-18T16:37:02;6.43;;;2.70;;
11396;SDS011;5754;43.726;7.416;2022-11-18T16:39:38;5.33;;;2.83;;
11396;SDS011;5754;43.726;7.416;2022-11-18T16:42:15;6.43;;;2.90;;
11396;SDS011;5754;43.726;7.416;2022-11-18T16:44:50;9.47;;;3.50;;
11396;SDS011;5754;43.726;7.416;2022-11-18T16:47:24;5.43;;;3.33;;
11396;SDS011;5754;43.726;7.416;2022-11-18T16:49:59;6.53;;;3.10;;
11396;SDS011;5754;43.726;7.416;2022-11-18T16:52:33;7.40;;;2.83;;
11396;SDS011;5754;43.726;7.416;2022-11-18T16:55:08;9.23;;;3.67;;
11396;SDS011;5754;43.726;7.416;2022-11-18T16:57:42;4.23;;;2.90;;
11396;SDS011;5754;43.726;7.416;2022-11-18T17:00:17;9.00;;;3.07;;
11396;SDS011;5754;43.726;7.416;2022-11-18T17:02:52;4.90;;;3.47;;
11396;SDS011;5754;43.726;7.416;2022-11-18T17:05:28;4.97;;;3.10;;
11396;SDS011;5754;43.726;7.416;2022-11-18T17:08:08;4.80;;;3.00;;
11396;SDS011;5754;43.726;7.416;2022-11-18T17:10:43;7.30;;;3.47;;
11396;SDS011;5754;43.726;7.416;2022-11-18T17:13:18;6.40;;;3.27;;
11396;SDS011;5754;43.726;7.416;2022-11-18T17:15:52;8.90;;;3.60;;
11396;SDS011;5754;43.726;7.416;2022-11-18T17:18:27;8.27;;;3.60;;
11396;SDS011;5754;43.726;7.416;2022-11-18T17:21:05;8.33;;;3.67;;
11396;SDS011;5754;43.726;7.416;2022-11-18T17:23:40;6.53;;;3.50;;
11396;SDS011;5754;43.726;7.416;2022-11-18T17:26:17;6.27;;;3.67;;
11396;SDS011;5754;43.726;7.416;2022-11-18T17:28:55;5.63;;;3.73;;
11396;SDS011;5754;43.726;7.416;2022-11-18T17:31:29;3.43;;;3.00;;
11396;SDS011;5754;43.726;7.416;2022-11-18T17:34:04;5.10;;;3.07;;
11396;SDS011;5754;43.726;7.416;2022-11-18T17:36:38;5.73;;;3.33;;
11396;SDS011;5754;43.726;7.416;2022-11-18T17:39:13;4.33;;;2.97;;
11396;SDS011;5754;43.726;7.416;2022-11-18T17:41:49;6.10;;;2.70;;
11396;SDS011;5754;43.726;7.416;2022-11-18T17:44:42;6.07;;;3.30;;
11396;SDS011;5754;43.726;7.416;2022-11-18T17:47:17;7.77;;;3.03;;
11396;SDS011;5754;43.726;7.416;2022-11-18T17:49:51;8.40;;;3.30;;